sensor_id;sensor_type;location;lat;lon;timestamp;P1;durP1;ratioP1;P2;durP2;ratioP2
59008;SDS011;44794;42.652;23.318;2022-08-27T00:02:03;13.85;;;6.80;;
59008;SDS011;44794;42.652;23.318;2022-08-27T00:04:30;17.13;;;5.78;;
59008;SDS011;44794;42.652;23.318;2022-08-27T00:06:56;16.55;;;7.43;;
59008;SDS011;44794;42.652;23.318;2022-08-27T00:09:21;16.60;;;6.85;;
59008;SDS011;44794;42.652;23.318;2022-08-27T00:11:47;13.00;;;6.60;;
59008;SDS011;44794;42.652;23.318;2022-08-27T00:14:13;12.80;;;7.13;;
59008;SDS011;44794;42.652;23.318;2022-08-27T00:16:39;14.57;;;6.22;;
59008;SDS011;44794;42.652;23.318;2022-08-27T00:19:05;18.30;;;6.95;;
59008;SDS011;44794;42.652;23.318;2022-08-27T00:21:30;17.92;;;6.70;;
59008;SDS011;44794;42.652;23.318;2022-08-27T00:23:57;13.52;;;6.55;;
59008;SDS011;44794;42.652;23.318;2022-08-27T00:26:23;11.73;;;6.40;;
59008;SDS011;44794;42.652;23.318;2022-08-27T00:28:49;12.27;;;6.60;;
59008;SDS011;44794;42.652;23.318;2022-08-27T00:31:15;13.20;;;6.70;;
59008;SDS011;44794;42.652;23.318;2022-08-27T00:33:40;13.48;;;6.18;;
59008;SDS011;44794;42.652;23.318;2022-08-27T00:36:07;10.18;;;6.18;;
59008;SDS011;44794;42.652;23.318;2022-08-27T00:38:34;10.68;;;6.30;;
59008;SDS011;44794;42.652;23.318;2022-08-27T00:41:01;14.75;;;6.30;;
59008;SDS011;44794;42.652;23.318;2022-08-27T00:43:28;14.57;;;7.10;;
59008;SDS011;44794;42.652;23.318;2022-08-27T00:45:59;18.40;;;6.80;;
59008;SDS011;44794;42.652;23.318;2022-08-27T00:48:30;12.48;;;6.03;;
59008;SDS011;44794;42.652;23.318;2022-08-27T00:50:59;18.58;;;6.25;;
59008;SDS011;44794;42.652;23.318;2022-08-27T00:53:26;13.43;;;7.13;;
59008;SDS011;44794;42.652;23.318;2022-08-27T00:55:55;15.88;;;6.72;;
59008;SDS011;44794;42.652;23.318;2022-08-27T00:58:35;20.65;;;6.82;;
59008;SDS011;44794;42.652;23.318;2022-08-27T01:01:05;17.65;;;7.25;;
59008;SDS011;44794;42.652;23.318;2022-08-27T01:03:33;18.10;;;7.15;;
59008;SDS011;44794;42.652;23.318;2022-08-27T01:06:00;15.05;;;7.00;;
59008;SDS011;44794;42.652;23.318;2022-08-27T01:08:28;12.40;;;7.20;;
59008;SDS011;44794;42.652;23.318;2022-08-27T01:10:58;15.68;;;7.25;;
59008;SDS011;44794;42.652;23.318;2022-08-27T01:13:25;15.13;;;7.30;;
59008;SDS011;44794;42.652;23.318;2022-08-27T01:15:53;16.88;;;7.40;;
59008;SDS011;44794;42.652;23.318;2022-08-27T01:18:23;20.70;;;7.43;;
59008;SDS011;44794;42.652;23.318;2022-08-27T01:26:26;13.77;;;6.78;;
59008;SDS011;44794;42.652;23.318;2022-08-27T01:28:53;19.48;;;6.82;;
59008;SDS011;44794;42.652;23.318;2022-08-27T01:31:18;18.92;;;7.20;;
59008;SDS011;44794;42.652;23.318;2022-08-27T01:34:02;14.30;;;6.90;;
59008;SDS011;44794;42.652;23.318;2022-08-27T01:36:30;13.60;;;6.90;;
59008;SDS011;44794;42.652;23.318;2022-08-27T01:38:56;13.38;;;7.18;;
59008;SDS011;44794;42.652;23.318;2022-08-27T01:41:22;21.85;;;7.28;;
59008;SDS011;44794;42.652;23.318;2022-08-27T01:43:48;14.88;;;7.40;;
59008;SDS011;44794;42.652;23.318;2022-08-27T01:46:14;19.23;;;8.27;;
59008;SDS011;44794;42.652;23.318;2022-08-27T01:48:45;14.85;;;7.93;;
59008;SDS011;44794;42.652;23.318;2022-08-27T01:51:11;21.23;;;7.35;;
59008;SDS011;44794;42.652;23.318;2022-08-27T01:53:36;14.45;;;7.53;;
59008;SDS011;44794;42.652;23.318;2022-08-27T01:56:02;14.43;;;7.90;;
59008;SDS011;44794;42.652;23.318;2022-08-27T01:58:29;19.50;;;7.68;;
59008;SDS011;44794;42.652;23.318;2022-08-27T02:00:56;14.15;;;7.43;;
59008;SDS011;44794;42.652;23.318;2022-08-27T02:03:24;18.05;;;8.60;;
59008;SDS011;44794;42.652;23.318;2022-08-27T02:05:51;14.25;;;7.80;;
59008;SDS011;44794;42.652;23.318;2022-08-27T02:08:17;14.93;;;8.07;;
59008;SDS011;44794;42.652;23.318;2022-08-27T02:10:43;20.08;;;8.73;;
59008;SDS011;44794;42.652;23.318;2022-08-27T02:13:10;17.92;;;7.68;;
59008;SDS011;44794;42.652;23.318;2022-08-27T02:15:37;18.20;;;7.93;;
59008;SDS011;44794;42.652;23.318;2022-08-27T02:18:05;18.60;;;7.90;;
59008;SDS011;44794;42.652;23.318;2022-08-27T02:20:31;15.45;;;8.75;;
59008;SDS011;44794;42.652;23.318;2022-08-27T02:22:57;17.92;;;7.97;;
59008;SDS011;44794;42.652;23.318;2022-08-27T02:25:23;16.13;;;8.60;;
59008;SDS011;44794;42.652;23.318;2022-08-27T02:27:50;15.85;;;8.18;;
59008;SDS011;44794;42.652;23.318;2022-08-27T02:30:18;14.68;;;8.32;;
59008;SDS011;44794;42.652;23.318;2022-08-27T02:32:45;17.13;;;8.48;;
59008;SDS011;44794;42.652;23.318;2022-08-27T02:35:11;13.60;;;7.97;;
59008;SDS011;44794;42.652;23.318;2022-08-27T02:37:41;21.37;;;8.27;;
59008;SDS011;44794;42.652;23.318;2022-08-27T02:40:08;19.95;;;8.80;;
59008;SDS011;44794;42.652;23.318;2022-08-27T02:42:34;14.52;;;8.32;;
59008;SDS011;44794;42.652;23.318;2022-08-27T02:44:59;14.80;;;7.57;;
59008;SDS011;44794;42.652;23.318;2022-08-27T02:47:25;16.40;;;9.00;;
59008;SDS011;44794;42.652;23.318;2022-08-27T02:49:50;19.52;;;8.63;;
59008;SDS011;44794;42.652;23.318;2022-08-27T02:52:16;14.10;;;8.52;;
59008;SDS011;44794;42.652;23.318;2022-08-27T02:54:42;15.23;;;8.90;;
59008;SDS011;44794;42.652;23.318;2022-08-27T02:57:08;18.15;;;9.35;;
59008;SDS011;44794;42.652;23.318;2022-08-27T02:59:33;20.95;;;9.50;;
59008;SDS011;44794;42.652;23.318;2022-08-27T03:01:59;16.63;;;8.82;;
59008;SDS011;44794;42.652;23.318;2022-08-27T03:04:25;18.88;;;9.80;;
59008;SDS011;44794;42.652;23.318;2022-08-27T03:06:51;25.83;;;9.48;;
59008;SDS011;44794;42.652;23.318;2022-08-27T03:09:18;23.73;;;9.60;;
59008;SDS011;44794;42.652;23.318;2022-08-27T03:11:44;16.10;;;8.95;;
59008;SDS011;44794;42.652;23.318;2022-08-27T03:14:09;16.23;;;8.95;;
59008;SDS011;44794;42.652;23.318;2022-08-27T03:16:36;16.80;;;8.32;;
59008;SDS011;44794;42.652;23.318;2022-08-27T03:19:02;21.00;;;9.05;;
59008;SDS011;44794;42.652;23.318;2022-08-27T03:21:31;20.75;;;8.82;;
59008;SDS011;44794;42.652;23.318;2022-08-27T03:23:58;18.90;;;8.75;;
59008;SDS011;44794;42.652;23.318;2022-08-27T03:26:25;17.63;;;9.30;;
59008;SDS011;44794;42.652;23.318;2022-08-27T03:28:52;19.38;;;9.07;;
59008;SDS011;44794;42.652;23.318;2022-08-27T03:31:19;17.67;;;9.10;;
59008;SDS011;44794;42.652;23.318;2022-08-27T03:33:51;16.48;;;9.07;;
59008;SDS011;44794;42.652;23.318;2022-08-27T03:36:18;19.42;;;9.45;;
59008;SDS011;44794;42.652;23.318;2022-08-27T03:38:44;17.83;;;8.75;;
59008;SDS011;44794;42.652;23.318;2022-08-27T03:41:09;19.27;;;9.35;;
59008;SDS011;44794;42.652;23.318;2022-08-27T03:43:35;17.45;;;8.77;;
59008;SDS011;44794;42.652;23.318;2022-08-27T03:46:00;17.05;;;8.70;;
59008;SDS011;44794;42.652;23.318;2022-08-27T03:48:26;16.33;;;9.38;;
59008;SDS011;44794;42.652;23.318;2022-08-27T03:50:52;21.50;;;10.40;;
59008;SDS011;44794;42.652;23.318;2022-08-27T03:53:18;15.27;;;8.90;;
59008;SDS011;44794;42.652;23.318;2022-08-27T03:55:46;19.60;;;10.57;;
59008;SDS011;44794;42.652;23.318;2022-08-27T03:58:12;21.48;;;10.25;;
59008;SDS011;44794;42.652;23.318;2022-08-27T04:00:38;21.60;;;10.30;;
59008;SDS011;44794;42.652;23.318;2022-08-27T04:03:05;18.35;;;9.68;;
59008;SDS011;44794;42.652;23.318;2022-08-27T04:05:32;18.38;;;9.30;;
59008;SDS011;44794;42.652;23.318;2022-08-27T04:07:58;18.27;;;9.07;;
59008;SDS011;44794;42.652;23.318;2022-08-27T04:10:24;16.00;;;9.32;;
59008;SDS011;44794;42.652;23.318;2022-08-27T04:12:51;21.77;;;9.38;;
59008;SDS011;44794;42.652;23.318;2022-08-27T04:15:16;13.68;;;8.60;;
59008;SDS011;44794;42.652;23.318;2022-08-27T04:17:42;25.90;;;8.70;;
59008;SDS011;44794;42.652;23.318;2022-08-27T04:20:08;18.88;;;9.55;;
59008;SDS011;44794;42.652;23.318;2022-08-27T04:22:35;19.45;;;8.88;;
59008;SDS011;44794;42.652;23.318;2022-08-27T04:25:00;17.27;;;8.50;;
59008;SDS011;44794;42.652;23.318;2022-08-27T04:27:26;15.43;;;8.98;;
59008;SDS011;44794;42.652;23.318;2022-08-27T04:29:56;14.20;;;8.23;;
59008;SDS011;44794;42.652;23.318;2022-08-27T04:32:27;10.63;;;8.07;;
59008;SDS011;44794;42.652;23.318;2022-08-27T04:34:53;17.87;;;8.67;;
59008;SDS011;44794;42.652;23.318;2022-08-27T04:37:20;15.88;;;8.30;;
59008;SDS011;44794;42.652;23.318;2022-08-27T04:39:46;16.85;;;7.82;;
59008;SDS011;44794;42.652;23.318;2022-08-27T04:42:11;17.23;;;7.75;;
59008;SDS011;44794;42.652;23.318;2022-08-27T04:44:37;14.25;;;8.73;;
59008;SDS011;44794;42.652;23.318;2022-08-27T04:47:03;17.38;;;8.57;;
59008;SDS011;44794;42.652;23.318;2022-08-27T04:49:29;21.33;;;8.00;;
59008;SDS011;44794;42.652;23.318;2022-08-27T04:51:55;16.40;;;8.63;;
59008;SDS011;44794;42.652;23.318;2022-08-27T04:54:21;20.90;;;8.90;;
59008;SDS011;44794;42.652;23.318;2022-08-27T04:56:47;18.60;;;8.27;;
59008;SDS011;44794;42.652;23.318;2022-08-27T04:59:14;20.92;;;8.38;;
59008;SDS011;44794;42.652;23.318;2022-08-27T05:01:40;19.92;;;9.63;;
59008;SDS011;44794;42.652;23.318;2022-08-27T05:04:06;23.55;;;9.02;;
59008;SDS011;44794;42.652;23.318;2022-08-27T05:06:32;14.35;;;8.20;;
59008;SDS011;44794;42.652;23.318;2022-08-27T05:09:00;17.30;;;8.50;;
59008;SDS011;44794;42.652;23.318;2022-08-27T05:11:26;21.88;;;9.20;;
59008;SDS011;44794;42.652;23.318;2022-08-27T05:13:56;20.00;;;9.10;;
59008;SDS011;44794;42.652;23.318;2022-08-27T05:16:23;15.85;;;8.50;;
59008;SDS011;44794;42.652;23.318;2022-08-27T05:18:49;17.02;;;8.02;;
59008;SDS011;44794;42.652;23.318;2022-08-27T05:21:23;19.77;;;8.52;;
59008;SDS011;44794;42.652;23.318;2022-08-27T05:23:51;25.80;;;8.77;;
59008;SDS011;44794;42.652;23.318;2022-08-27T05:26:18;14.65;;;8.63;;
59008;SDS011;44794;42.652;23.318;2022-08-27T05:28:44;19.40;;;8.98;;
59008;SDS011;44794;42.652;23.318;2022-08-27T05:31:10;16.98;;;8.73;;
59008;SDS011;44794;42.652;23.318;2022-08-27T05:33:37;18.60;;;8.35;;
59008;SDS011;44794;42.652;23.318;2022-08-27T05:36:04;18.38;;;8.27;;
59008;SDS011;44794;42.652;23.318;2022-08-27T05:38:30;16.27;;;8.55;;
59008;SDS011;44794;42.652;23.318;2022-08-27T05:43:29;16.90;;;8.13;;
59008;SDS011;44794;42.652;23.318;2022-08-27T05:45:56;18.60;;;8.13;;
59008;SDS011;44794;42.652;23.318;2022-08-27T05:48:21;14.93;;;7.30;;
59008;SDS011;44794;42.652;23.318;2022-08-27T05:50:47;20.75;;;7.20;;
59008;SDS011;44794;42.652;23.318;2022-08-27T05:53:12;16.13;;;7.20;;
59008;SDS011;44794;42.652;23.318;2022-08-27T05:55:42;23.25;;;8.05;;
59008;SDS011;44794;42.652;23.318;2022-08-27T05:58:09;16.42;;;7.40;;
59008;SDS011;44794;42.652;23.318;2022-08-27T06:00:56;17.88;;;7.90;;
59008;SDS011;44794;42.652;23.318;2022-08-27T06:03:31;17.48;;;6.50;;
59008;SDS011;44794;42.652;23.318;2022-08-27T06:06:07;15.05;;;6.47;;
59008;SDS011;44794;42.652;23.318;2022-08-27T06:08:35;19.95;;;7.68;;
59008;SDS011;44794;42.652;23.318;2022-08-27T06:11:01;15.98;;;6.85;;
59008;SDS011;44794;42.652;23.318;2022-08-27T06:13:29;17.73;;;7.00;;
59008;SDS011;44794;42.652;23.318;2022-08-27T06:16:10;16.38;;;6.97;;
59008;SDS011;44794;42.652;23.318;2022-08-27T06:18:40;15.35;;;6.72;;
59008;SDS011;44794;42.652;23.318;2022-08-27T06:21:08;19.10;;;7.20;;
59008;SDS011;44794;42.652;23.318;2022-08-27T06:23:34;22.65;;;7.22;;
59008;SDS011;44794;42.652;23.318;2022-08-27T06:26:01;19.52;;;7.18;;
59008;SDS011;44794;42.652;23.318;2022-08-27T06:28:30;15.20;;;6.78;;
59008;SDS011;44794;42.652;23.318;2022-08-27T06:31:06;15.98;;;7.10;;
59008;SDS011;44794;42.652;23.318;2022-08-27T06:33:34;16.13;;;6.75;;
59008;SDS011;44794;42.652;23.318;2022-08-27T06:36:00;15.00;;;7.28;;
59008;SDS011;44794;42.652;23.318;2022-08-27T06:38:27;23.70;;;7.63;;
59008;SDS011;44794;42.652;23.318;2022-08-27T06:40:52;20.67;;;6.93;;
59008;SDS011;44794;42.652;23.318;2022-08-27T06:43:19;16.88;;;7.50;;
59008;SDS011;44794;42.652;23.318;2022-08-27T06:45:45;17.92;;;7.18;;
59008;SDS011;44794;42.652;23.318;2022-08-27T06:48:10;17.98;;;7.13;;
59008;SDS011;44794;42.652;23.318;2022-08-27T06:50:37;17.45;;;7.18;;
59008;SDS011;44794;42.652;23.318;2022-08-27T06:53:03;19.77;;;6.88;;
59008;SDS011;44794;42.652;23.318;2022-08-27T06:55:29;13.82;;;7.20;;
59008;SDS011;44794;42.652;23.318;2022-08-27T06:57:54;19.45;;;6.95;;
59008;SDS011;44794;42.652;23.318;2022-08-27T07:00:20;21.00;;;7.40;;
59008;SDS011;44794;42.652;23.318;2022-08-27T07:02:46;12.85;;;6.82;;
59008;SDS011;44794;42.652;23.318;2022-08-27T07:05:11;18.42;;;7.28;;
59008;SDS011;44794;42.652;23.318;2022-08-27T07:07:36;20.80;;;7.45;;
59008;SDS011;44794;42.652;23.318;2022-08-27T07:10:02;18.20;;;7.70;;
59008;SDS011;44794;42.652;23.318;2022-08-27T07:12:28;15.70;;;7.40;;
59008;SDS011;44794;42.652;23.318;2022-08-27T07:14:54;13.88;;;6.50;;
59008;SDS011;44794;42.652;23.318;2022-08-27T07:17:19;20.00;;;6.88;;
59008;SDS011;44794;42.652;23.318;2022-08-27T07:19:44;20.60;;;6.70;;
59008;SDS011;44794;42.652;23.318;2022-08-27T07:22:10;20.17;;;6.50;;
59008;SDS011;44794;42.652;23.318;2022-08-27T07:24:37;14.70;;;6.70;;
59008;SDS011;44794;42.652;23.318;2022-08-27T07:27:03;16.92;;;6.35;;
59008;SDS011;44794;42.652;23.318;2022-08-27T07:29:28;19.40;;;7.00;;
59008;SDS011;44794;42.652;23.318;2022-08-27T07:31:54;15.27;;;6.93;;
59008;SDS011;44794;42.652;23.318;2022-08-27T07:34:19;16.67;;;6.97;;
59008;SDS011;44794;42.652;23.318;2022-08-27T07:36:45;18.35;;;7.03;;
59008;SDS011;44794;42.652;23.318;2022-08-27T07:39:10;15.50;;;6.47;;
59008;SDS011;44794;42.652;23.318;2022-08-27T07:41:37;15.15;;;6.20;;
59008;SDS011;44794;42.652;23.318;2022-08-27T07:44:22;15.50;;;6.63;;
59008;SDS011;44794;42.652;23.318;2022-08-27T07:46:52;15.80;;;6.90;;
59008;SDS011;44794;42.652;23.318;2022-08-27T07:49:20;19.88;;;7.28;;
59008;SDS011;44794;42.652;23.318;2022-08-27T07:51:47;19.92;;;7.10;;
59008;SDS011;44794;42.652;23.318;2022-08-27T07:54:14;18.30;;;7.10;;
59008;SDS011;44794;42.652;23.318;2022-08-27T07:56:40;15.90;;;6.68;;
59008;SDS011;44794;42.652;23.318;2022-08-27T07:59:06;21.02;;;7.60;;
59008;SDS011;44794;42.652;23.318;2022-08-27T08:01:32;18.45;;;7.18;;
59008;SDS011;44794;42.652;23.318;2022-08-27T08:03:58;18.73;;;6.72;;
59008;SDS011;44794;42.652;23.318;2022-08-27T08:06:23;17.70;;;6.25;;
59008;SDS011;44794;42.652;23.318;2022-08-27T08:08:49;17.42;;;6.57;;
59008;SDS011;44794;42.652;23.318;2022-08-27T08:11:15;18.10;;;6.00;;
59008;SDS011;44794;42.652;23.318;2022-08-27T08:13:42;19.75;;;7.38;;
59008;SDS011;44794;42.652;23.318;2022-08-27T08:16:09;22.45;;;7.18;;
59008;SDS011;44794;42.652;23.318;2022-08-27T08:18:35;19.90;;;6.15;;
59008;SDS011;44794;42.652;23.318;2022-08-27T08:21:02;20.40;;;6.60;;
59008;SDS011;44794;42.652;23.318;2022-08-27T08:23:33;16.52;;;5.93;;
59008;SDS011;44794;42.652;23.318;2022-08-27T08:25:59;15.48;;;6.25;;
59008;SDS011;44794;42.652;23.318;2022-08-27T08:28:25;15.77;;;6.38;;
59008;SDS011;44794;42.652;23.318;2022-08-27T08:30:53;18.50;;;6.80;;
59008;SDS011;44794;42.652;23.318;2022-08-27T08:33:19;14.88;;;6.18;;
59008;SDS011;44794;42.652;23.318;2022-08-27T08:35:45;17.40;;;6.82;;
59008;SDS011;44794;42.652;23.318;2022-08-27T08:38:12;15.98;;;6.40;;
59008;SDS011;44794;42.652;23.318;2022-08-27T08:40:42;19.17;;;6.30;;
59008;SDS011;44794;42.652;23.318;2022-08-27T08:46:02;21.50;;;6.65;;
59008;SDS011;44794;42.652;23.318;2022-08-27T08:48:34;19.08;;;6.43;;
59008;SDS011;44794;42.652;23.318;2022-08-27T08:51:13;13.82;;;6.00;;
59008;SDS011;44794;42.652;23.318;2022-08-27T08:53:51;17.40;;;6.00;;
59008;SDS011;44794;42.652;23.318;2022-08-27T08:56:29;11.55;;;4.93;;
59008;SDS011;44794;42.652;23.318;2022-08-27T08:59:00;11.07;;;5.22;;
59008;SDS011;44794;42.652;23.318;2022-08-27T09:01:31;18.63;;;5.22;;
59008;SDS011;44794;42.652;23.318;2022-08-27T09:03:58;16.50;;;5.45;;
59008;SDS011;44794;42.652;23.318;2022-08-27T09:08:59;15.93;;;5.32;;
59008;SDS011;44794;42.652;23.318;2022-08-27T09:11:54;14.45;;;5.18;;
59008;SDS011;44794;42.652;23.318;2022-08-27T09:14:29;16.10;;;5.28;;
59008;SDS011;44794;42.652;23.318;2022-08-27T09:17:05;15.25;;;5.05;;
59008;SDS011;44794;42.652;23.318;2022-08-27T09:19:31;16.92;;;4.43;;
59008;SDS011;44794;42.652;23.318;2022-08-27T09:22:00;13.30;;;4.53;;
59008;SDS011;44794;42.652;23.318;2022-08-27T09:24:36;17.17;;;4.75;;
59008;SDS011;44794;42.652;23.318;2022-08-27T09:27:16;16.92;;;4.72;;
59008;SDS011;44794;42.652;23.318;2022-08-27T09:29:52;21.58;;;5.50;;
59008;SDS011;44794;42.652;23.318;2022-08-27T09:32:26;20.35;;;5.50;;
59008;SDS011;44794;42.652;23.318;2022-08-27T09:34:55;15.60;;;4.97;;
59008;SDS011;44794;42.652;23.318;2022-08-27T09:37:24;16.77;;;5.00;;
59008;SDS011;44794;42.652;23.318;2022-08-27T09:42:31;10.13;;;4.55;;
59008;SDS011;44794;42.652;23.318;2022-08-27T09:45:07;11.93;;;4.80;;
59008;SDS011;44794;42.652;23.318;2022-08-27T09:47:50;16.42;;;4.68;;
59008;SDS011;44794;42.652;23.318;2022-08-27T09:50:20;13.65;;;4.50;;
59008;SDS011;44794;42.652;23.318;2022-08-27T09:55:30;12.93;;;4.70;;
59008;SDS011;44794;42.652;23.318;2022-08-27T09:58:13;13.30;;;4.78;;
59008;SDS011;44794;42.652;23.318;2022-08-27T10:00:42;13.40;;;4.22;;
59008;SDS011;44794;42.652;23.318;2022-08-27T10:03:08;13.43;;;4.07;;
59008;SDS011;44794;42.652;23.318;2022-08-27T10:05:48;13.93;;;3.83;;
59008;SDS011;44794;42.652;23.318;2022-08-27T10:11:28;11.57;;;3.70;;
59008;SDS011;44794;42.652;23.318;2022-08-27T10:14:05;14.45;;;4.75;;
59008;SDS011;44794;42.652;23.318;2022-08-27T10:33:23;19.23;;;4.47;;
59008;SDS011;44794;42.652;23.318;2022-08-27T10:36:09;18.33;;;4.68;;
59008;SDS011;44794;42.652;23.318;2022-08-27T10:38:41;12.52;;;4.28;;
59008;SDS011;44794;42.652;23.318;2022-08-27T10:41:15;19.35;;;4.68;;
59008;SDS011;44794;42.652;23.318;2022-08-27T10:49:25;9.60;;;4.15;;
59008;SDS011;44794;42.652;23.318;2022-08-27T10:54:51;16.35;;;4.80;;
59008;SDS011;44794;42.652;23.318;2022-08-27T11:00:06;17.80;;;4.90;;
59008;SDS011;44794;42.652;23.318;2022-08-27T11:05:12;16.23;;;5.00;;
59008;SDS011;44794;42.652;23.318;2022-08-27T11:07:43;15.13;;;4.80;;
59008;SDS011;44794;42.652;23.318;2022-08-27T11:12:55;12.18;;;4.35;;
59008;SDS011;44794;42.652;23.318;2022-08-27T11:15:30;13.65;;;4.80;;
59008;SDS011;44794;42.652;23.318;2022-08-27T11:18:15;14.18;;;4.75;;
59008;SDS011;44794;42.652;23.318;2022-08-27T11:21:02;15.48;;;4.68;;
59008;SDS011;44794;42.652;23.318;2022-08-27T11:23:42;18.65;;;4.80;;
59008;SDS011;44794;42.652;23.318;2022-08-27T11:26:12;18.13;;;5.03;;
59008;SDS011;44794;42.652;23.318;2022-08-27T11:28:39;12.65;;;5.43;;
59008;SDS011;44794;42.652;23.318;2022-08-27T11:44:31;18.67;;;4.78;;
59008;SDS011;44794;42.652;23.318;2022-08-27T11:47:13;17.15;;;5.32;;
59008;SDS011;44794;42.652;23.318;2022-08-27T11:49:45;9.60;;;5.25;;
59008;SDS011;44794;42.652;23.318;2022-08-27T11:52:24;15.47;;;5.67;;
59008;SDS011;44794;42.652;23.318;2022-08-27T11:57:38;15.02;;;5.47;;
59008;SDS011;44794;42.652;23.318;2022-08-27T12:05:34;17.35;;;4.60;;
59008;SDS011;44794;42.652;23.318;2022-08-27T12:08:30;13.65;;;5.00;;
59008;SDS011;44794;42.652;23.318;2022-08-27T12:25:21;18.08;;;5.32;;
59008;SDS011;44794;42.652;23.318;2022-08-27T12:27:53;17.67;;;5.43;;
59008;SDS011;44794;42.652;23.318;2022-08-27T12:30:26;18.77;;;5.70;;
59008;SDS011;44794;42.652;23.318;2022-08-27T12:33:04;15.30;;;5.55;;
59008;SDS011;44794;42.652;23.318;2022-08-27T12:35:46;16.45;;;5.15;;
59008;SDS011;44794;42.652;23.318;2022-08-27T12:41:26;17.42;;;5.03;;
59008;SDS011;44794;42.652;23.318;2022-08-27T12:44:03;15.13;;;5.10;;
59008;SDS011;44794;42.652;23.318;2022-08-27T12:46:29;13.98;;;4.65;;
59008;SDS011;44794;42.652;23.318;2022-08-27T12:48:56;14.73;;;4.80;;
59008;SDS011;44794;42.652;23.318;2022-08-27T12:53:55;12.63;;;5.10;;
59008;SDS011;44794;42.652;23.318;2022-08-27T12:59:14;16.55;;;5.30;;
59008;SDS011;44794;42.652;23.318;2022-08-27T13:04:44;14.43;;;4.78;;
59008;SDS011;44794;42.652;23.318;2022-08-27T13:07:12;13.23;;;4.85;;
59008;SDS011;44794;42.652;23.318;2022-08-27T13:09:38;17.00;;;5.05;;
59008;SDS011;44794;42.652;23.318;2022-08-27T13:12:13;12.95;;;5.10;;
59008;SDS011;44794;42.652;23.318;2022-08-27T13:14:41;14.45;;;5.13;;
59008;SDS011;44794;42.652;23.318;2022-08-27T13:17:10;13.30;;;4.97;;
59008;SDS011;44794;42.652;23.318;2022-08-27T13:19:44;11.85;;;5.38;;
59008;SDS011;44794;42.652;23.318;2022-08-27T13:22:51;16.85;;;5.35;;
59008;SDS011;44794;42.652;23.318;2022-08-27T13:25:26;12.63;;;5.03;;
59008;SDS011;44794;42.652;23.318;2022-08-27T13:28:15;14.18;;;4.90;;
59008;SDS011;44794;42.652;23.318;2022-08-27T13:30:44;12.10;;;4.75;;
59008;SDS011;44794;42.652;23.318;2022-08-27T13:33:21;12.55;;;5.20;;
59008;SDS011;44794;42.652;23.318;2022-08-27T13:35:49;15.93;;;4.80;;
59008;SDS011;44794;42.652;23.318;2022-08-27T13:38:15;13.25;;;4.70;;
59008;SDS011;44794;42.652;23.318;2022-08-27T13:40:50;14.48;;;4.68;;
59008;SDS011;44794;42.652;23.318;2022-08-27T13:43:17;15.43;;;5.25;;
59008;SDS011;44794;42.652;23.318;2022-08-27T13:45:47;14.55;;;4.72;;
59008;SDS011;44794;42.652;23.318;2022-08-27T13:50:48;15.40;;;4.68;;
59008;SDS011;44794;42.652;23.318;2022-08-27T13:53:24;23.65;;;5.38;;
59008;SDS011;44794;42.652;23.318;2022-08-27T13:56:21;15.57;;;4.97;;
59008;SDS011;44794;42.652;23.318;2022-08-27T13:58:52;12.00;;;5.10;;
59008;SDS011;44794;42.652;23.318;2022-08-27T14:01:28;15.73;;;5.78;;
59008;SDS011;44794;42.652;23.318;2022-08-27T14:06:44;18.73;;;5.15;;
59008;SDS011;44794;42.652;23.318;2022-08-27T14:11:40;13.80;;;4.82;;
59008;SDS011;44794;42.652;23.318;2022-08-27T14:14:06;13.68;;;4.90;;
59008;SDS011;44794;42.652;23.318;2022-08-27T14:16:32;15.73;;;4.88;;
59008;SDS011;44794;42.652;23.318;2022-08-27T14:19:11;8.70;;;4.47;;
59008;SDS011;44794;42.652;23.318;2022-08-27T14:21:48;10.80;;;5.10;;
59008;SDS011;44794;42.652;23.318;2022-08-27T14:24:14;11.18;;;5.13;;
59008;SDS011;44794;42.652;23.318;2022-08-27T14:26:40;11.30;;;5.32;;
59008;SDS011;44794;42.652;23.318;2022-08-27T14:29:05;11.02;;;4.82;;
59008;SDS011;44794;42.652;23.318;2022-08-27T14:31:31;14.40;;;5.07;;
59008;SDS011;44794;42.652;23.318;2022-08-27T14:33:56;14.48;;;4.80;;
59008;SDS011;44794;42.652;23.318;2022-08-27T14:36:23;14.52;;;5.13;;
59008;SDS011;44794;42.652;23.318;2022-08-27T14:38:51;15.63;;;5.05;;
59008;SDS011;44794;42.652;23.318;2022-08-27T14:41:17;16.58;;;5.43;;
59008;SDS011;44794;42.652;23.318;2022-08-27T14:43:43;12.18;;;4.88;;
59008;SDS011;44794;42.652;23.318;2022-08-27T14:46:10;13.32;;;5.20;;
59008;SDS011;44794;42.652;23.318;2022-08-27T14:48:43;15.25;;;5.28;;
59008;SDS011;44794;42.652;23.318;2022-08-27T14:51:12;17.45;;;5.57;;
59008;SDS011;44794;42.652;23.318;2022-08-27T14:53:43;15.98;;;5.57;;
59008;SDS011;44794;42.652;23.318;2022-08-27T14:56:09;22.38;;;6.40;;
59008;SDS011;44794;42.652;23.318;2022-08-27T14:58:34;15.35;;;5.30;;
59008;SDS011;44794;42.652;23.318;2022-08-27T15:01:02;15.63;;;5.10;;
59008;SDS011;44794;42.652;23.318;2022-08-27T15:03:28;20.45;;;5.60;;
59008;SDS011;44794;42.652;23.318;2022-08-27T15:05:54;21.73;;;5.70;;
59008;SDS011;44794;42.652;23.318;2022-08-27T15:08:21;21.50;;;5.00;;
59008;SDS011;44794;42.652;23.318;2022-08-27T15:10:47;15.50;;;4.63;;
59008;SDS011;44794;42.652;23.318;2022-08-27T15:13:13;13.02;;;5.43;;
59008;SDS011;44794;42.652;23.318;2022-08-27T15:15:39;13.15;;;4.93;;
59008;SDS011;44794;42.652;23.318;2022-08-27T15:18:05;15.05;;;5.03;;
59008;SDS011;44794;42.652;23.318;2022-08-27T15:20:31;13.77;;;5.35;;
59008;SDS011;44794;42.652;23.318;2022-08-27T15:22:57;17.77;;;5.15;;
59008;SDS011;44794;42.652;23.318;2022-08-27T15:25:22;11.95;;;5.50;;
59008;SDS011;44794;42.652;23.318;2022-08-27T15:27:48;17.75;;;5.30;;
59008;SDS011;44794;42.652;23.318;2022-08-27T15:30:15;16.13;;;5.50;;
59008;SDS011;44794;42.652;23.318;2022-08-27T15:32:42;14.93;;;5.22;;
59008;SDS011;44794;42.652;23.318;2022-08-27T15:35:12;15.57;;;6.22;;
59008;SDS011;44794;42.652;23.318;2022-08-27T15:37:40;14.57;;;5.85;;
59008;SDS011;44794;42.652;23.318;2022-08-27T15:40:07;16.55;;;6.13;;
59008;SDS011;44794;42.652;23.318;2022-08-27T15:42:34;13.10;;;5.95;;
59008;SDS011;44794;42.652;23.318;2022-08-27T15:45:00;15.10;;;6.38;;
59008;SDS011;44794;42.652;23.318;2022-08-27T15:47:26;16.85;;;7.28;;
59008;SDS011;44794;42.652;23.318;2022-08-27T15:49:52;13.70;;;6.53;;
59008;SDS011;44794;42.652;23.318;2022-08-27T15:52:18;21.90;;;7.43;;
59008;SDS011;44794;42.652;23.318;2022-08-27T15:54:46;16.90;;;7.30;;
59008;SDS011;44794;42.652;23.318;2022-08-27T15:57:16;17.75;;;8.70;;
59008;SDS011;44794;42.652;23.318;2022-08-27T15:59:42;18.73;;;9.20;;
59008;SDS011;44794;42.652;23.318;2022-08-27T16:02:13;14.52;;;7.63;;
59008;SDS011;44794;42.652;23.318;2022-08-27T16:04:41;20.33;;;7.43;;
59008;SDS011;44794;42.652;23.318;2022-08-27T16:07:07;18.73;;;7.43;;
59008;SDS011;44794;42.652;23.318;2022-08-27T16:09:33;18.20;;;8.52;;
59008;SDS011;44794;42.652;23.318;2022-08-27T16:11:59;16.10;;;8.48;;
59008;SDS011;44794;42.652;23.318;2022-08-27T16:14:25;21.83;;;6.78;;
59008;SDS011;44794;42.652;23.318;2022-08-27T16:16:50;18.40;;;7.00;;
59008;SDS011;44794;42.652;23.318;2022-08-27T16:19:16;15.20;;;6.72;;
59008;SDS011;44794;42.652;23.318;2022-08-27T16:21:44;11.32;;;6.47;;